sensor_id;sensor_type;location;lat;lon;timestamp;temperature;humidity
13817;DHT22;6979;52.116;5.286;2022-08-19T00:00:01;22.80;99.90
13817;DHT22;6979;52.116;5.286;2022-08-19T00:02:29;22.80;99.90
13817;DHT22;6979;52.116;5.286;2022-08-19T00:04:56;22.80;99.90
13817;DHT22;6979;52.116;5.286;2022-08-19T00:07:23;22.80;99.90
13817;DHT22;6979;52.116;5.286;2022-08-19T00:09:50;22.80;99.90
13817;DHT22;6979;52.116;5.286;2022-08-19T00:12:16;22.80;99.90
13817;DHT22;6979;52.116;5.286;2022-08-19T00:14:44;22.70;99.90
13817;DHT22;6979;52.116;5.286;2022-08-19T00:17:11;22.70;99.90
13817;DHT22;6979;52.116;5.286;2022-08-19T00:19:38;22.70;99.90
13817;DHT22;6979;52.116;5.286;2022-08-19T00:22:06;22.70;99.90
13817;DHT22;6979;52.116;5.286;2022-08-19T00:24:34;22.70;99.90
13817;DHT22;6979;52.116;5.286;2022-08-19T00:27:03;22.70;99.90
13817;DHT22;6979;52.116;5.286;2022-08-19T00:29:30;22.60;99.90
13817;DHT22;6979;52.116;5.286;2022-08-19T00:31:58;22.60;99.90
13817;DHT22;6979;52.116;5.286;2022-08-19T00:34:26;22.60;99.90
13817;DHT22;6979;52.116;5.286;2022-08-19T00:36:54;22.50;99.90
13817;DHT22;6979;52.116;5.286;2022-08-19T00:39:22;22.50;99.90
13817;DHT22;6979;52.116;5.286;2022-08-19T00:41:50;22.50;99.90
13817;DHT22;6979;52.116;5.286;2022-08-19T00:44:18;22.40;99.90
13817;DHT22;6979;52.116;5.286;2022-08-19T00:46:47;22.40;99.90
13817;DHT22;6979;52.116;5.286;2022-08-19T00:49:19;22.40;99.90
13817;DHT22;6979;52.116;5.286;2022-08-19T00:51:50;22.30;99.90
13817;DHT22;6979;52.116;5.286;2022-08-19T00:54:18;22.30;99.90
13817;DHT22;6979;52.116;5.286;2022-08-19T00:56:46;22.20;99.90
13817;DHT22;6979;52.116;5.286;2022-08-19T00:59:14;22.20;99.90
13817;DHT22;6979;52.116;5.286;2022-08-19T01:01:43;22.20;99.90
13817;DHT22;6979;52.116;5.286;2022-08-19T01:04:10;22.10;99.90
13817;DHT22;6979;52.116;5.286;2022-08-19T01:06:40;22.10;99.90
13817;DHT22;6979;52.116;5.286;2022-08-19T01:09:07;22.00;99.90
13817;DHT22;6979;52.116;5.286;2022-08-19T01:11:38;22.00;99.90
13817;DHT22;6979;52.116;5.286;2022-08-19T01:14:06;22.00;99.90
13817;DHT22;6979;52.116;5.286;2022-08-19T01:16:35;21.90;99.90
13817;DHT22;6979;52.116;5.286;2022-08-19T01:19:04;21.90;99.90
13817;DHT22;6979;52.116;5.286;2022-08-19T01:21:40;21.90;99.90
13817;DHT22;6979;52.116;5.286;2022-08-19T01:24:09;21.80;99.90
13817;DHT22;6979;52.116;5.286;2022-08-19T01:26:39;21.80;99.90
13817;DHT22;6979;52.116;5.286;2022-08-19T01:29:07;21.80;99.90
13817;DHT22;6979;52.116;5.286;2022-08-19T01:31:34;21.70;99.90
13817;DHT22;6979;52.116;5.286;2022-08-19T01:34:02;21.70;99.90
13817;DHT22;6979;52.116;5.286;2022-08-19T01:36:32;21.70;99.90
13817;DHT22;6979;52.116;5.286;2022-08-19T01:39:00;21.60;99.90
13817;DHT22;6979;52.116;5.286;2022-08-19T01:41:29;21.60;99.90
13817;DHT22;6979;52.116;5.286;2022-08-19T01:43:56;21.60;99.90
13817;DHT22;6979;52.116;5.286;2022-08-19T01:46:24;21.50;99.90
13817;DHT22;6979;52.116;5.286;2022-08-19T01:48:50;21.50;99.90
13817;DHT22;6979;52.116;5.286;2022-08-19T01:51:17;21.50;99.90
13817;DHT22;6979;52.116;5.286;2022-08-19T01:53:47;21.40;99.90
13817;DHT22;6979;52.116;5.286;2022-08-19T01:56:14;21.40;99.90
13817;DHT22;6979;52.116;5.286;2022-08-19T01:58:45;21.40;99.90
13817;DHT22;6979;52.116;5.286;2022-08-19T02:01:14;21.40;99.90
13817;DHT22;6979;52.116;5.286;2022-08-19T02:03:42;21.40;99.90
13817;DHT22;6979;52.116;5.286;2022-08-19T02:06:09;21.40;99.90
13817;DHT22;6979;52.116;5.286;2022-08-19T02:08:37;21.40;99.90
13817;DHT22;6979;52.116;5.286;2022-08-19T02:11:05;21.40;99.90
13817;DHT22;6979;52.116;5.286;2022-08-19T02:13:33;21.40;99.90
13817;DHT22;6979;52.116;5.286;2022-08-19T02:16:02;21.30;99.90
13817;DHT22;6979;52.116;5.286;2022-08-19T02:18:29;21.30;99.90
13817;DHT22;6979;52.116;5.286;2022-08-19T02:20:56;21.30;99.90
13817;DHT22;6979;52.116;5.286;2022-08-19T02:23:22;21.30;99.90
13817;DHT22;6979;52.116;5.286;2022-08-19T02:25:51;21.30;99.90
13817;DHT22;6979;52.116;5.286;2022-08-19T02:28:18;21.30;99.90
13817;DHT22;6979;52.116;5.286;2022-08-19T02:30:46;21.30;99.90
13817;DHT22;6979;52.116;5.286;2022-08-19T02:33:15;21.20;99.90
13817;DHT22;6979;52.116;5.286;2022-08-19T02:35:42;21.20;99.90
13817;DHT22;6979;52.116;5.286;2022-08-19T02:38:09;21.20;99.90
13817;DHT22;6979;52.116;5.286;2022-08-19T02:40:53;21.20;99.90
13817;DHT22;6979;52.116;5.286;2022-08-19T02:43:21;21.20;99.90
13817;DHT22;6979;52.116;5.286;2022-08-19T02:45:49;21.20;99.90
13817;DHT22;6979;52.116;5.286;2022-08-19T02:48:20;21.20;99.90
13817;DHT22;6979;52.116;5.286;2022-08-19T02:50:48;21.20;99.90
13817;DHT22;6979;52.116;5.286;2022-08-19T02:53:18;21.20;99.90
13817;DHT22;6979;52.116;5.286;2022-08-19T02:55:46;21.20;99.90
13817;DHT22;6979;52.116;5.286;2022-08-19T02:58:14;21.10;99.90
13817;DHT22;6979;52.116;5.286;2022-08-19T03:00:42;21.10;99.90
13817;DHT22;6979;52.116;5.286;2022-08-19T03:03:10;21.10;99.90
13817;DHT22;6979;52.116;5.286;2022-08-19T03:05:38;21.10;99.90
13817;DHT22;6979;52.116;5.286;2022-08-19T03:08:05;21.10;99.90
13817;DHT22;6979;52.116;5.286;2022-08-19T03:10:32;21.10;99.90
13817;DHT22;6979;52.116;5.286;2022-08-19T03:12:59;21.00;99.90
13817;DHT22;6979;52.116;5.286;2022-08-19T03:15:26;21.00;99.90
13817;DHT22;6979;52.116;5.286;2022-08-19T03:17:52;21.00;99.90
13817;DHT22;6979;52.116;5.286;2022-08-19T03:20:19;21.00;99.90
13817;DHT22;6979;52.116;5.286;2022-08-19T03:22:48;21.00;99.90
13817;DHT22;6979;52.116;5.286;2022-08-19T03:25:14;21.00;99.90
13817;DHT22;6979;52.116;5.286;2022-08-19T03:27:42;20.90;99.90
13817;DHT22;6979;52.116;5.286;2022-08-19T03:30:10;20.90;99.90
13817;DHT22;6979;52.116;5.286;2022-08-19T03:32:37;20.90;99.90
13817;DHT22;6979;52.116;5.286;2022-08-19T03:35:04;20.90;99.90
13817;DHT22;6979;52.116;5.286;2022-08-19T03:37:31;20.80;99.90
13817;DHT22;6979;52.116;5.286;2022-08-19T03:39:59;20.80;99.90
13817;DHT22;6979;52.116;5.286;2022-08-19T03:42:27;20.80;99.90
13817;DHT22;6979;52.116;5.286;2022-08-19T03:44:57;20.80;99.90
13817;DHT22;6979;52.116;5.286;2022-08-19T03:47:24;20.80;99.90
13817;DHT22;6979;52.116;5.286;2022-08-19T03:49:51;20.70;99.90
13817;DHT22;6979;52.116;5.286;2022-08-19T03:52:17;20.70;99.90
13817;DHT22;6979;52.116;5.286;2022-08-19T03:54:44;20.70;99.90
13817;DHT22;6979;52.116;5.286;2022-08-19T03:57:12;20.60;99.90
13817;DHT22;6979;52.116;5.286;2022-08-19T03:59:39;20.60;99.90
13817;DHT22;6979;52.116;5.286;2022-08-19T04:02:09;20.60;99.90
13817;DHT22;6979;52.116;5.286;2022-08-19T04:04:37;20.60;99.90
13817;DHT22;6979;52.116;5.286;2022-08-19T04:07:04;20.50;99.90
13817;DHT22;6979;52.116;5.286;2022-08-19T04:09:32;20.50;99.90
13817;DHT22;6979;52.116;5.286;2022-08-19T04:11:59;20.40;99.90
13817;DHT22;6979;52.116;5.286;2022-08-19T04:14:29;20.40;99.90
13817;DHT22;6979;52.116;5.286;2022-08-19T04:16:57;20.40;99.90
13817;DHT22;6979;52.116;5.286;2022-08-19T04:19:25;20.30;99.90
13817;DHT22;6979;52.116;5.286;2022-08-19T04:21:53;20.30;99.90
13817;DHT22;6979;52.116;5.286;2022-08-19T04:24:21;20.30;99.90
13817;DHT22;6979;52.116;5.286;2022-08-19T04:26:49;20.20;99.90
13817;DHT22;6979;52.116;5.286;2022-08-19T04:29:18;20.20;99.90
13817;DHT22;6979;52.116;5.286;2022-08-19T04:31:48;20.20;99.90
13817;DHT22;6979;52.116;5.286;2022-08-19T04:34:18;20.20;99.90
13817;DHT22;6979;52.116;5.286;2022-08-19T04:36:47;20.10;99.90
13817;DHT22;6979;52.116;5.286;2022-08-19T04:39:18;20.10;99.90
13817;DHT22;6979;52.116;5.286;2022-08-19T04:41:47;20.10;99.90
13817;DHT22;6979;52.116;5.286;2022-08-19T04:44:32;20.10;99.90
13817;DHT22;6979;52.116;5.286;2022-08-19T04:47:01;20.10;99.90
13817;DHT22;6979;52.116;5.286;2022-08-19T04:49:31;20.10;99.90
13817;DHT22;6979;52.116;5.286;2022-08-19T04:51:58;20.10;99.90
13817;DHT22;6979;52.116;5.286;2022-08-19T04:54:25;20.10;99.90
13817;DHT22;6979;52.116;5.286;2022-08-19T04:56:52;20.00;99.90
13817;DHT22;6979;52.116;5.286;2022-08-19T04:59:20;20.00;99.90
13817;DHT22;6979;52.116;5.286;2022-08-19T05:01:48;20.00;99.90
13817;DHT22;6979;52.116;5.286;2022-08-19T05:04:18;20.00;99.90
13817;DHT22;6979;52.116;5.286;2022-08-19T05:06:46;20.00;99.90
13817;DHT22;6979;52.116;5.286;2022-08-19T05:09:14;20.10;99.90
13817;DHT22;6979;52.116;5.286;2022-08-19T05:11:43;20.10;99.90
13817;DHT22;6979;52.116;5.286;2022-08-19T05:14:11;20.10;99.90
13817;DHT22;6979;52.116;5.286;2022-08-19T05:16:39;20.10;99.90
13817;DHT22;6979;52.116;5.286;2022-08-19T05:19:06;20.10;99.90
13817;DHT22;6979;52.116;5.286;2022-08-19T05:21:51;20.10;99.90
13817;DHT22;6979;52.116;5.286;2022-08-19T05:24:36;20.20;99.90
13817;DHT22;6979;52.116;5.286;2022-08-19T05:27:04;20.20;99.90
13817;DHT22;6979;52.116;5.286;2022-08-19T05:29:32;20.20;99.90
13817;DHT22;6979;52.116;5.286;2022-08-19T05:32:01;20.20;99.90
13817;DHT22;6979;52.116;5.286;2022-08-19T05:34:30;20.30;99.90
13817;DHT22;6979;52.116;5.286;2022-08-19T05:37:02;20.30;99.90
13817;DHT22;6979;52.116;5.286;2022-08-19T05:39:31;20.30;99.90
13817;DHT22;6979;52.116;5.286;2022-08-19T05:42:00;20.30;99.90
13817;DHT22;6979;52.116;5.286;2022-08-19T05:44:28;20.40;99.90
13817;DHT22;6979;52.116;5.286;2022-08-19T05:46:57;20.40;99.90
13817;DHT22;6979;52.116;5.286;2022-08-19T05:49:24;20.50;99.90
13817;DHT22;6979;52.116;5.286;2022-08-19T05:51:51;20.50;99.90
13817;DHT22;6979;52.116;5.286;2022-08-19T05:54:19;20.60;99.90
13817;DHT22;6979;52.116;5.286;2022-08-19T05:56:46;20.60;99.90
13817;DHT22;6979;52.116;5.286;2022-08-19T05:59:14;20.70;99.90
13817;DHT22;6979;52.116;5.286;2022-08-19T06:01:44;20.80;99.90
13817;DHT22;6979;52.116;5.286;2022-08-19T06:04:12;20.80;99.90
13817;DHT22;6979;52.116;5.286;2022-08-19T06:06:40;20.80;99.90
13817;DHT22;6979;52.116;5.286;2022-08-19T06:09:07;20.90;99.90
13817;DHT22;6979;52.116;5.286;2022-08-19T06:11:39;21.00;99.90
13817;DHT22;6979;52.116;5.286;2022-08-19T06:14:08;21.00;99.90
13817;DHT22;6979;52.116;5.286;2022-08-19T06:16:36;21.10;99.90
13817;DHT22;6979;52.116;5.286;2022-08-19T06:19:08;21.20;99.90
13817;DHT22;6979;52.116;5.286;2022-08-19T06:21:37;21.20;99.90
13817;DHT22;6979;52.116;5.286;2022-08-19T06:24:06;21.30;99.90
13817;DHT22;6979;52.116;5.286;2022-08-19T06:26:34;21.30;99.90
13817;DHT22;6979;52.116;5.286;2022-08-19T06:29:04;21.40;99.90
13817;DHT22;6979;52.116;5.286;2022-08-19T06:31:33;21.50;99.90
13817;DHT22;6979;52.116;5.286;2022-08-19T06:34:00;21.50;99.90
13817;DHT22;6979;52.116;5.286;2022-08-19T06:36:31;21.60;99.90
13817;DHT22;6979;52.116;5.286;2022-08-19T06:39:00;21.70;99.90
13817;DHT22;6979;52.116;5.286;2022-08-19T06:41:28;21.80;99.90
13817;DHT22;6979;52.116;5.286;2022-08-19T06:43:55;21.80;99.90
13817;DHT22;6979;52.116;5.286;2022-08-19T06:46:23;22.00;99.90
13817;DHT22;6979;52.116;5.286;2022-08-19T06:48:50;22.00;99.90
13817;DHT22;6979;52.116;5.286;2022-08-19T06:51:18;22.10;99.90
13817;DHT22;6979;52.116;5.286;2022-08-19T06:53:46;22.20;99.90
13817;DHT22;6979;52.116;5.286;2022-08-19T06:56:13;22.30;99.90
13817;DHT22;6979;52.116;5.286;2022-08-19T06:58:40;22.30;99.90
13817;DHT22;6979;52.116;5.286;2022-08-19T07:01:07;22.40;99.90
13817;DHT22;6979;52.116;5.286;2022-08-19T07:03:37;22.40;99.90
13817;DHT22;6979;52.116;5.286;2022-08-19T07:06:05;22.50;99.90
13817;DHT22;6979;52.116;5.286;2022-08-19T07:08:33;22.60;99.90
13817;DHT22;6979;52.116;5.286;2022-08-19T07:11:02;22.60;99.90
13817;DHT22;6979;52.116;5.286;2022-08-19T07:13:28;22.60;99.90
13817;DHT22;6979;52.116;5.286;2022-08-19T07:16:03;22.70;99.90
13817;DHT22;6979;52.116;5.286;2022-08-19T07:18:30;22.70;99.90
13817;DHT22;6979;52.116;5.286;2022-08-19T07:21:04;22.70;99.90
13817;DHT22;6979;52.116;5.286;2022-08-19T07:23:31;22.80;99.90
13817;DHT22;6979;52.116;5.286;2022-08-19T07:26:03;22.80;99.90
13817;DHT22;6979;52.116;5.286;2022-08-19T07:28:30;22.90;99.90
13817;DHT22;6979;52.116;5.286;2022-08-19T07:30:57;22.90;99.90
13817;DHT22;6979;52.116;5.286;2022-08-19T07:33:24;23.00;99.90
13817;DHT22;6979;52.116;5.286;2022-08-19T07:35:52;23.00;99.90
13817;DHT22;6979;52.116;5.286;2022-08-19T07:38:22;23.10;99.90
13817;DHT22;6979;52.116;5.286;2022-08-19T07:40:50;23.20;99.90
13817;DHT22;6979;52.116;5.286;2022-08-19T07:43:17;23.20;99.90
13817;DHT22;6979;52.116;5.286;2022-08-19T07:45:50;23.30;99.90
13817;DHT22;6979;52.116;5.286;2022-08-19T07:48:17;23.30;99.90
13817;DHT22;6979;52.116;5.286;2022-08-19T07:50:44;23.40;99.90
13817;DHT22;6979;52.116;5.286;2022-08-19T07:53:11;23.40;99.90
13817;DHT22;6979;52.116;5.286;2022-08-19T07:55:40;23.50;99.90
13817;DHT22;6979;52.116;5.286;2022-08-19T07:58:07;23.50;99.90
13817;DHT22;6979;52.116;5.286;2022-08-19T08:00:34;23.50;99.90
13817;DHT22;6979;52.116;5.286;2022-08-19T08:03:01;23.60;99.90
13817;DHT22;6979;52.116;5.286;2022-08-19T08:05:28;23.60;99.90
13817;DHT22;6979;52.116;5.286;2022-08-19T08:08:12;23.60;99.90
13817;DHT22;6979;52.116;5.286;2022-08-19T08:10:59;23.70;99.90
13817;DHT22;6979;52.116;5.286;2022-08-19T08:13:26;23.80;99.90
13817;DHT22;6979;52.116;5.286;2022-08-19T08:15:53;23.80;99.90
13817;DHT22;6979;52.116;5.286;2022-08-19T08:18:20;23.80;99.90
13817;DHT22;6979;52.116;5.286;2022-08-19T08:20:47;23.90;99.90
13817;DHT22;6979;52.116;5.286;2022-08-19T08:23:14;24.00;99.90
13817;DHT22;6979;52.116;5.286;2022-08-19T08:25:51;24.00;99.90
13817;DHT22;6979;52.116;5.286;2022-08-19T08:28:21;24.10;99.90
13817;DHT22;6979;52.116;5.286;2022-08-19T08:30:49;24.20;99.90
13817;DHT22;6979;52.116;5.286;2022-08-19T08:33:18;24.30;99.90
13817;DHT22;6979;52.116;5.286;2022-08-19T08:35:45;24.40;99.90
13817;DHT22;6979;52.116;5.286;2022-08-19T08:38:12;24.40;99.90
13817;DHT22;6979;52.116;5.286;2022-08-19T08:40:44;24.60;99.90
13817;DHT22;6979;52.116;5.286;2022-08-19T08:43:21;24.70;99.90
13817;DHT22;6979;52.116;5.286;2022-08-19T08:45:53;24.80;99.90
13817;DHT22;6979;52.116;5.286;2022-08-19T08:48:24;24.90;99.90
13817;DHT22;6979;52.116;5.286;2022-08-19T08:50:54;25.10;99.90
13817;DHT22;6979;52.116;5.286;2022-08-19T08:53:24;25.20;99.90
13817;DHT22;6979;52.116;5.286;2022-08-19T08:55:51;25.30;99.90
13817;DHT22;6979;52.116;5.286;2022-08-19T08:58:26;25.40;99.90
13817;DHT22;6979;52.116;5.286;2022-08-19T09:00:56;25.50;99.90
13817;DHT22;6979;52.116;5.286;2022-08-19T09:03:25;25.50;99.90
13817;DHT22;6979;52.116;5.286;2022-08-19T09:05:59;25.60;99.90
13817;DHT22;6979;52.116;5.286;2022-08-19T09:08:36;25.70;99.90
13817;DHT22;6979;52.116;5.286;2022-08-19T09:11:07;25.90;99.90
13817;DHT22;6979;52.116;5.286;2022-08-19T09:13:48;26.10;99.90
13817;DHT22;6979;52.116;5.286;2022-08-19T09:16:20;26.20;99.90
13817;DHT22;6979;52.116;5.286;2022-08-19T09:18:55;26.30;99.90
13817;DHT22;6979;52.116;5.286;2022-08-19T09:21:25;26.40;99.90
13817;DHT22;6979;52.116;5.286;2022-08-19T09:23:53;26.50;99.90
13817;DHT22;6979;52.116;5.286;2022-08-19T09:26:22;26.60;99.90
13817;DHT22;6979;52.116;5.286;2022-08-19T09:28:52;26.70;99.90
13817;DHT22;6979;52.116;5.286;2022-08-19T09:31:22;26.80;99.90
13817;DHT22;6979;52.116;5.286;2022-08-19T09:33:51;26.90;99.90
13817;DHT22;6979;52.116;5.286;2022-08-19T09:36:19;26.90;99.90
13817;DHT22;6979;52.116;5.286;2022-08-19T09:38:48;26.90;99.90
13817;DHT22;6979;52.116;5.286;2022-08-19T09:41:17;27.00;99.90
13817;DHT22;6979;52.116;5.286;2022-08-19T09:43:46;27.00;99.90
13817;DHT22;6979;52.116;5.286;2022-08-19T09:46:15;27.10;99.90
13817;DHT22;6979;52.116;5.286;2022-08-19T09:48:42;27.20;99.90
13817;DHT22;6979;52.116;5.286;2022-08-19T09:51:11;27.30;99.90
13817;DHT22;6979;52.116;5.286;2022-08-19T09:53:40;27.50;99.90
13817;DHT22;6979;52.116;5.286;2022-08-19T09:56:07;27.70;99.90
13817;DHT22;6979;52.116;5.286;2022-08-19T09:58:35;27.80;99.90
13817;DHT22;6979;52.116;5.286;2022-08-19T10:01:04;27.90;99.90
13817;DHT22;6979;52.116;5.286;2022-08-19T10:03:34;28.00;99.90
13817;DHT22;6979;52.116;5.286;2022-08-19T10:06:03;28.00;99.90
13817;DHT22;6979;52.116;5.286;2022-08-19T10:08:34;28.00;99.90
13817;DHT22;6979;52.116;5.286;2022-08-19T10:11:03;28.10;99.90
13817;DHT22;6979;52.116;5.286;2022-08-19T10:13:31;28.00;99.90
13817;DHT22;6979;52.116;5.286;2022-08-19T10:16:05;28.00;99.90
13817;DHT22;6979;52.116;5.286;2022-08-19T10:18:34;28.00;99.90
13817;DHT22;6979;52.116;5.286;2022-08-19T10:21:07;28.00;99.90
13817;DHT22;6979;52.116;5.286;2022-08-19T10:23:35;28.00;99.90
13817;DHT22;6979;52.116;5.286;2022-08-19T10:26:03;28.10;99.90
13817;DHT22;6979;52.116;5.286;2022-08-19T10:28:32;28.30;99.90
13817;DHT22;6979;52.116;5.286;2022-08-19T10:31:04;28.50;99.90
13817;DHT22;6979;52.116;5.286;2022-08-19T10:33:33;28.70;99.90
13817;DHT22;6979;52.116;5.286;2022-08-19T10:36:02;29.00;99.90
13817;DHT22;6979;52.116;5.286;2022-08-19T10:38:30;29.30;99.90
13817;DHT22;6979;52.116;5.286;2022-08-19T10:40:57;29.60;99.90
13817;DHT22;6979;52.116;5.286;2022-08-19T10:43:24;29.90;99.90
13817;DHT22;6979;52.116;5.286;2022-08-19T10:45:54;30.10;99.90
13817;DHT22;6979;52.116;5.286;2022-08-19T10:48:24;30.30;99.90
13817;DHT22;6979;52.116;5.286;2022-08-19T10:50:53;30.50;99.90
13817;DHT22;6979;52.116;5.286;2022-08-19T10:53:37;30.60;99.90
13817;DHT22;6979;52.116;5.286;2022-08-19T10:56:04;30.80;99.90
13817;DHT22;6979;52.116;5.286;2022-08-19T10:58:48;30.90;99.90
13817;DHT22;6979;52.116;5.286;2022-08-19T11:01:15;31.10;99.90
13817;DHT22;6979;52.116;5.286;2022-08-19T11:03:42;31.30;99.90
13817;DHT22;6979;52.116;5.286;2022-08-19T11:06:12;31.50;99.90
13817;DHT22;6979;52.116;5.286;2022-08-19T11:08:39;31.60;99.90
13817;DHT22;6979;52.116;5.286;2022-08-19T11:11:08;31.60;99.90
13817;DHT22;6979;52.116;5.286;2022-08-19T11:13:37;31.60;99.90
13817;DHT22;6979;52.116;5.286;2022-08-19T11:16:07;31.70;99.90
13817;DHT22;6979;52.116;5.286;2022-08-19T11:18:36;31.80;99.90
13817;DHT22;6979;52.116;5.286;2022-08-19T11:21:08;31.90;99.90
13817;DHT22;6979;52.116;5.286;2022-08-19T11:23:37;32.20;99.90
13817;DHT22;6979;52.116;5.286;2022-08-19T11:26:04;32.30;99.50
13817;DHT22;6979;52.116;5.286;2022-08-19T11:28:31;32.50;99.60
13817;DHT22;6979;52.116;5.286;2022-08-19T11:30:58;32.70;98.70
13817;DHT22;6979;52.116;5.286;2022-08-19T11:33:25;32.80;97.70
13817;DHT22;6979;52.116;5.286;2022-08-19T11:35:53;32.80;97.60
13817;DHT22;6979;52.116;5.286;2022-08-19T11:38:20;32.80;96.20
13817;DHT22;6979;52.116;5.286;2022-08-19T11:40:55;32.80;95.60
13817;DHT22;6979;52.116;5.286;2022-08-19T11:43:22;32.80;94.50
13817;DHT22;6979;52.116;5.286;2022-08-19T11:45:49;32.70;96.00
13817;DHT22;6979;52.116;5.286;2022-08-19T11:48:16;32.60;94.40
13817;DHT22;6979;52.116;5.286;2022-08-19T11:50:48;32.50;94.40
13817;DHT22;6979;52.116;5.286;2022-08-19T11:53:15;32.30;94.50
13817;DHT22;6979;52.116;5.286;2022-08-19T11:55:42;32.10;94.00
13817;DHT22;6979;52.116;5.286;2022-08-19T11:58:11;31.80;94.50
13817;DHT22;6979;52.116;5.286;2022-08-19T12:00:39;31.50;94.90
13817;DHT22;6979;52.116;5.286;2022-08-19T12:03:06;31.20;95.90
13817;DHT22;6979;52.116;5.286;2022-08-19T12:05:36;30.90;96.20
13817;DHT22;6979;52.116;5.286;2022-08-19T12:08:03;30.70;97.10
13817;DHT22;6979;52.116;5.286;2022-08-19T12:10:30;30.40;97.90
13817;DHT22;6979;52.116;5.286;2022-08-19T12:12:56;30.10;98.80
13817;DHT22;6979;52.116;5.286;2022-08-19T12:15:25;29.90;99.70
13817;DHT22;6979;52.116;5.286;2022-08-19T12:17:52;29.70;99.90
13817;DHT22;6979;52.116;5.286;2022-08-19T12:20:20;29.50;99.90
13817;DHT22;6979;52.116;5.286;2022-08-19T12:22:47;29.30;99.90
13817;DHT22;6979;52.116;5.286;2022-08-19T12:25:14;29.10;99.90
13817;DHT22;6979;52.116;5.286;2022-08-19T12:27:41;28.90;99.90
13817;DHT22;6979;52.116;5.286;2022-08-19T12:30:10;28.80;99.90
13817;DHT22;6979;52.116;5.286;2022-08-19T12:32:39;28.70;99.90
13817;DHT22;6979;52.116;5.286;2022-08-19T12:35:07;28.60;99.90
13817;DHT22;6979;52.116;5.286;2022-08-19T12:37:37;28.60;99.90
13817;DHT22;6979;52.116;5.286;2022-08-19T12:40:05;28.60;99.90
13817;DHT22;6979;52.116;5.286;2022-08-19T12:42:32;28.60;99.90
13817;DHT22;6979;52.116;5.286;2022-08-19T12:44:58;28.60;99.90
13817;DHT22;6979;52.116;5.286;2022-08-19T12:47:25;28.70;99.90
13817;DHT22;6979;52.116;5.286;2022-08-19T12:49:54;28.80;99.90
13817;DHT22;6979;52.116;5.286;2022-08-19T12:52:22;28.90;99.90
13817;DHT22;6979;52.116;5.286;2022-08-19T12:54:49;28.90;99.90
13817;DHT22;6979;52.116;5.286;2022-08-19T12:57:16;29.00;99.90
13817;DHT22;6979;52.116;5.286;2022-08-19T12:59:43;29.10;99.90
13817;DHT22;6979;52.116;5.286;2022-08-19T13:02:10;29.10;99.90
13817;DHT22;6979;52.116;5.286;2022-08-19T13:04:37;29.10;99.90
13817;DHT22;6979;52.116;5.286;2022-08-19T13:07:08;29.20;99.90
13817;DHT22;6979;52.116;5.286;2022-08-19T13:09:35;29.20;99.90
13817;DHT22;6979;52.116;5.286;2022-08-19T13:12:03;29.30;99.90
13817;DHT22;6979;52.116;5.286;2022-08-19T13:14:33;29.30;99.90
13817;DHT22;6979;52.116;5.286;2022-08-19T13:17:00;29.30;99.90
13817;DHT22;6979;52.116;5.286;2022-08-19T13:19:27;29.40;99.90
13817;DHT22;6979;52.116;5.286;2022-08-19T13:21:54;29.30;99.90
13817;DHT22;6979;52.116;5.286;2022-08-19T13:24:23;29.30;99.90
13817;DHT22;6979;52.116;5.286;2022-08-19T13:26:49;29.20;99.90
13817;DHT22;6979;52.116;5.286;2022-08-19T13:29:16;29.20;99.90
13817;DHT22;6979;52.116;5.286;2022-08-19T13:32:01;29.20;99.90
13817;DHT22;6979;52.116;5.286;2022-08-19T13:34:57;29.20;99.90
13817;DHT22;6979;52.116;5.286;2022-08-19T13:37:24;29.10;99.90
13817;DHT22;6979;52.116;5.286;2022-08-19T13:40:08;29.00;99.90
13817;DHT22;6979;52.116;5.286;2022-08-19T13:42:37;28.90;99.90
13817;DHT22;6979;52.116;5.286;2022-08-19T13:45:04;28.80;99.90
13817;DHT22;6979;52.116;5.286;2022-08-19T13:47:31;28.70;99.90
13817;DHT22;6979;52.116;5.286;2022-08-19T13:49:59;28.60;99.90
13817;DHT22;6979;52.116;5.286;2022-08-19T13:52:26;28.50;99.90
13817;DHT22;6979;52.116;5.286;2022-08-19T13:54:53;28.40;99.90
13817;DHT22;6979;52.116;5.286;2022-08-19T13:57:21;28.30;99.90
13817;DHT22;6979;52.116;5.286;2022-08-19T13:59:48;28.20;99.90
13817;DHT22;6979;52.116;5.286;2022-08-19T14:02:15;28.10;99.90
13817;DHT22;6979;52.116;5.286;2022-08-19T14:04:41;28.00;99.90
13817;DHT22;6979;52.116;5.286;2022-08-19T14:07:08;27.80;99.90
13817;DHT22;6979;52.116;5.286;2022-08-19T14:09:35;27.80;99.90
13817;DHT22;6979;52.116;5.286;2022-08-19T14:12:03;27.60;99.90
13817;DHT22;6979;52.116;5.286;2022-08-19T14:14:31;27.50;99.90
13817;DHT22;6979;52.116;5.286;2022-08-19T14:16:58;27.40;99.90
13817;DHT22;6979;52.116;5.286;2022-08-19T14:19:25;27.30;99.90
13817;DHT22;6979;52.116;5.286;2022-08-19T14:21:51;27.10;99.90
13817;DHT22;6979;52.116;5.286;2022-08-19T14:24:18;27.00;99.90
13817;DHT22;6979;52.116;5.286;2022-08-19T14:26:45;26.90;99.90
13817;DHT22;6979;52.116;5.286;2022-08-19T14:29:12;26.80;99.90
13817;DHT22;6979;52.116;5.286;2022-08-19T14:31:40;26.70;99.90
13817;DHT22;6979;52.116;5.286;2022-08-19T14:34:09;26.60;99.90
13817;DHT22;6979;52.116;5.286;2022-08-19T14:36:38;26.50;99.90
13817;DHT22;6979;52.116;5.286;2022-08-19T14:39:05;26.40;99.90
13817;DHT22;6979;52.116;5.286;2022-08-19T14:41:31;26.40;99.90
13817;DHT22;6979;52.116;5.286;2022-08-19T14:43:59;26.30;99.90
13817;DHT22;6979;52.116;5.286;2022-08-19T14:46:27;26.30;99.90
13817;DHT22;6979;52.116;5.286;2022-08-19T14:48:55;26.30;99.90
13817;DHT22;6979;52.116;5.286;2022-08-19T14:51:24;26.30;99.90
13817;DHT22;6979;52.116;5.286;2022-08-19T14:53:53;26.30;99.90
13817;DHT22;6979;52.116;5.286;2022-08-19T14:56:22;26.30;99.90
13817;DHT22;6979;52.116;5.286;2022-08-19T14:58:49;26.30;99.90
13817;DHT22;6979;52.116;5.286;2022-08-19T15:01:17;26.40;99.90
13817;DHT22;6979;52.116;5.286;2022-08-19T15:03:45;26.40;99.90
13817;DHT22;6979;52.116;5.286;2022-08-19T15:06:14;26.50;99.90
13817;DHT22;6979;52.116;5.286;2022-08-19T15:08:42;26.50;99.90
13817;DHT22;6979;52.116;5.286;2022-08-19T15:11:13;26.60;99.90
13817;DHT22;6979;52.116;5.286;2022-08-19T15:13:41;26.80;99.90
13817;DHT22;6979;52.116;5.286;2022-08-19T15:16:08;26.90;99.90
13817;DHT22;6979;52.116;5.286;2022-08-19T15:18:35;27.10;99.90
13817;DHT22;6979;52.116;5.286;2022-08-19T15:21:03;27.20;99.90
13817;DHT22;6979;52.116;5.286;2022-08-19T15:23:32;27.40;99.90
13817;DHT22;6979;52.116;5.286;2022-08-19T15:26:04;27.60;99.90
13817;DHT22;6979;52.116;5.286;2022-08-19T15:28:37;27.90;99.90
13817;DHT22;6979;52.116;5.286;2022-08-19T15:31:04;28.10;99.90
13817;DHT22;6979;52.116;5.286;2022-08-19T15:33:32;28.40;99.90
13817;DHT22;6979;52.116;5.286;2022-08-19T15:36:00;28.60;99.90
13817;DHT22;6979;52.116;5.286;2022-08-19T15:38:29;28.80;99.90
13817;DHT22;6979;52.116;5.286;2022-08-19T15:40:57;29.00;99.90
13817;DHT22;6979;52.116;5.286;2022-08-19T15:43:43;29.20;99.90
13817;DHT22;6979;52.116;5.286;2022-08-19T15:46:10;29.30;99.90
13817;DHT22;6979;52.116;5.286;2022-08-19T15:48:37;29.40;99.90
13817;DHT22;6979;52.116;5.286;2022-08-19T15:51:04;29.50;99.90
13817;DHT22;6979;52.116;5.286;2022-08-19T15:53:31;29.50;99.90